createdAt,value
2022-08-14T00:01:54.532Z,25.95
2022-08-14T00:04:34.495Z,26.13
2022-08-14T00:07:11.708Z,27.98
2022-08-14T00:09:56.100Z,28.50
2022-08-14T00:12:48.280Z,27.77
2022-08-14T00:15:21.940Z,27.88
2022-08-14T00:17:53.000Z,27.52
2022-08-14T00:20:30.598Z,27.27
2022-08-14T00:23:12.059Z,28.05
2022-08-14T00:25:42.802Z,27.80
2022-08-14T00:28:15.504Z,28.45
2022-08-14T00:33:16.118Z,27.52
2022-08-14T00:36:36.075Z,27.02
2022-08-14T00:38:34.818Z,27.10
2022-08-14T00:41:03.005Z,27.73
2022-08-14T00:43:32.261Z,27.70
2022-08-14T00:46:08.206Z,28.10
2022-08-14T00:48:38.352Z,26.83
2022-08-14T00:51:08.727Z,25.50
2022-08-14T00:53:37.070Z,27.83
2022-08-14T00:56:08.442Z,27.25
2022-08-14T00:58:45.280Z,27.95
2022-08-14T01:01:17.190Z,27.63
2022-08-14T01:03:45.329Z,27.90
2022-08-14T01:06:16.852Z,28.05
2022-08-14T01:08:57.591Z,27.08
2022-08-14T01:11:35.418Z,27.58
2022-08-14T01:14:04.951Z,27.50
2022-08-14T01:16:53.161Z,28.55
2022-08-14T01:19:41.558Z,27.77
2022-08-14T01:22:12.550Z,27.40
2022-08-14T01:24:41.310Z,26.30
2022-08-14T01:27:21.283Z,27.02
2022-08-14T01:30:03.581Z,26.10
2022-08-14T01:32:37.424Z,26.88
2022-08-14T01:35:20.849Z,26.75
2022-08-14T01:37:57.749Z,26.92
2022-08-14T01:40:36.307Z,26.98
2022-08-14T01:43:15.564Z,27.25
2022-08-14T01:45:49.128Z,26.30
2022-08-14T01:48:33.038Z,25.92
2022-08-14T01:51:02.652Z,27.17
2022-08-14T01:53:33.502Z,27.17
2022-08-14T01:56:05.230Z,26.95
2022-08-14T01:58:58.099Z,26.52
2022-08-14T02:01:26.650Z,26.17
2022-08-14T02:03:57.241Z,27.25
2022-08-14T02:06:33.445Z,27.45
2022-08-14T02:09:04.403Z,27.17
2022-08-14T02:14:14.695Z,26.48
2022-08-14T02:16:58.022Z,27.50
2022-08-14T02:19:31.632Z,25.15
2022-08-14T02:22:02.755Z,26.20
2022-08-14T02:24:39.014Z,26.65
2022-08-14T02:28:24.094Z,25.20
2022-08-14T02:29:59.937Z,25.23
2022-08-14T02:32:36.453Z,26.10
2022-08-14T02:35:19.153Z,25.42
2022-08-14T02:37:50.181Z,27.63
2022-08-14T02:40:19.264Z,25.75
2022-08-14T02:42:54.861Z,26.90
2022-08-14T02:45:38.691Z,27.17
2022-08-14T02:49:01.562Z,26.95
2022-08-14T02:51:00.783Z,27.15
2022-08-14T02:53:29.649Z,27.20
2022-08-14T02:56:02.537Z,24.50
2022-08-14T02:58:32.283Z,25.50
2022-08-14T03:01:01.130Z,24.42
2022-08-14T03:03:28.728Z,24.10
2022-08-14T03:05:58.748Z,24.75
2022-08-14T03:08:31.866Z,24.35
2022-08-14T03:11:00.787Z,23.98
2022-08-14T03:13:29.542Z,25.05
2022-08-14T03:15:58.174Z,24.40
2022-08-14T03:18:30.878Z,26.42
2022-08-14T03:21:05.741Z,24.70
2022-08-14T03:23:38.181Z,24.27
2022-08-14T03:26:18.348Z,25.52
2022-08-14T03:28:57.305Z,24.63
2022-08-14T03:31:29.386Z,24.75
2022-08-14T03:34:00.187Z,25.90
2022-08-14T03:37:51.369Z,24.85
2022-08-14T03:39:21.935Z,24.08
2022-08-14T03:41:54.582Z,24.17
2022-08-14T03:45:19.936Z,24.42
2022-08-14T03:47:11.729Z,24.77
2022-08-14T03:49:42.335Z,24.67
2022-08-14T03:52:28.173Z,23.52
2022-08-14T03:54:58.746Z,23.50
2022-08-14T03:57:25.431Z,23.83
2022-08-14T03:59:52.159Z,24.25
2022-08-14T04:02:32.985Z,24.90
2022-08-14T04:05:12.747Z,25.13
2022-08-14T04:07:49.454Z,24.33
2022-08-14T04:10:32.717Z,23.70
2022-08-14T04:13:03.207Z,25.48
2022-08-14T04:15:31.762Z,25.92
2022-08-14T04:18:06.505Z,25.00
2022-08-14T04:20:35.689Z,25.73
2022-08-14T04:23:23.621Z,26.35
2022-08-14T04:25:53.927Z,25.65
2022-08-14T04:29:07.189Z,28.33
2022-08-14T04:31:08.214Z,26.33
2022-08-14T04:33:36.287Z,26.80
2022-08-14T04:36:04.303Z,26.40
2022-08-14T04:38:49.508Z,27.00
2022-08-14T04:41:35.313Z,25.45
2022-08-14T04:44:04.907Z,27.70
2022-08-14T04:46:57.064Z,26.98
2022-08-14T04:49:21.622Z,27.15
2022-08-14T04:51:55.990Z,26.50
2022-08-14T04:54:26.860Z,26.98
2022-08-14T04:56:55.641Z,27.90
2022-08-14T04:59:24.168Z,26.20
2022-08-14T05:01:56.514Z,26.40
2022-08-14T05:04:24.843Z,28.08
2022-08-14T05:06:55.423Z,27.58
2022-08-14T05:09:28.765Z,27.45
2022-08-14T05:11:56.142Z,27.17
2022-08-14T05:14:53.437Z,26.60
2022-08-14T05:17:25.345Z,27.30
2022-08-14T05:21:55.271Z,26.33
2022-08-14T05:22:45.997Z,26.45
2022-08-14T05:25:12.794Z,27.88
2022-08-14T05:27:42.362Z,26.80
2022-08-14T05:30:09.701Z,27.73
2022-08-14T05:32:36.817Z,27.13
2022-08-14T05:35:03.902Z,25.60
2022-08-14T05:37:30.837Z,27.38
2022-08-14T05:39:59.066Z,25.52
2022-08-14T05:42:29.061Z,28.02
2022-08-14T05:44:58.315Z,26.35
2022-08-14T05:47:28.569Z,27.13
2022-08-14T05:49:58.317Z,28.05
2022-08-14T05:52:38.330Z,28.23
2022-08-14T05:55:11.416Z,28.50
2022-08-14T05:57:52.551Z,28.30
2022-08-14T06:00:24.725Z,28.50
2022-08-14T06:03:00.964Z,28.17
2022-08-14T06:05:35.097Z,29.48
2022-08-14T06:08:08.674Z,28.73
2022-08-14T06:10:50.768Z,28.38
2022-08-14T06:13:18.565Z,28.50
2022-08-14T06:15:46.960Z,27.83
2022-08-14T06:18:17.505Z,29.23
2022-08-14T06:20:44.365Z,28.25
2022-08-14T06:23:13.285Z,29.13
2022-08-14T06:25:41.597Z,28.40
2022-08-14T06:28:26.899Z,30.40
2022-08-14T06:30:54.666Z,30.25
2022-08-14T06:33:22.661Z,29.77
2022-08-14T06:35:49.898Z,29.83
2022-08-14T06:38:23.357Z,28.88
2022-08-14T06:40:51.636Z,29.60
2022-08-14T06:43:20.837Z,29.77
2022-08-14T06:45:53.834Z,28.67
2022-08-14T06:48:25.925Z,29.00
2022-08-14T06:50:54.155Z,28.58
2022-08-14T06:53:21.679Z,30.23
2022-08-14T06:55:58.290Z,30.92
2022-08-14T06:58:29.293Z,31.98
2022-08-14T07:01:19.284Z,30.25
2022-08-14T07:04:12.828Z,31.50
2022-08-14T07:06:51.036Z,31.00
2022-08-14T07:09:22.711Z,32.05
2022-08-14T07:11:51.570Z,33.03
2022-08-14T07:14:18.407Z,31.75
2022-08-14T07:16:45.187Z,30.30
2022-08-14T07:19:12.239Z,32.97
2022-08-14T07:21:39.429Z,33.00
2022-08-14T07:24:09.668Z,34.53
2022-08-14T07:26:48.309Z,34.92
2022-08-14T07:29:15.144Z,33.03
2022-08-14T07:31:44.177Z,33.10
2022-08-14T07:34:11.426Z,33.08
2022-08-14T07:36:38.281Z,33.45
2022-08-14T07:39:27.503Z,32.50
2022-08-14T07:41:54.604Z,32.70
2022-08-14T07:44:32.400Z,32.63
2022-08-14T07:47:03.757Z,33.50
2022-08-14T07:49:34.588Z,31.48
2022-08-14T07:52:04.947Z,32.97
2022-08-14T07:54:31.717Z,32.50
2022-08-14T07:57:11.844Z,30.75
2022-08-14T07:59:44.469Z,31.33
2022-08-14T08:02:19.750Z,30.90
2022-08-14T08:04:54.955Z,31.65
2022-08-14T08:07:30.089Z,31.38
2022-08-14T08:09:58.281Z,31.20
2022-08-14T08:12:31.127Z,31.67
2022-08-14T08:15:08.020Z,32.00
2022-08-14T08:17:42.635Z,32.75
2022-08-14T08:20:27.154Z,32.50
2022-08-14T08:23:05.980Z,33.87
2022-08-14T08:25:40.042Z,31.80
2022-08-14T08:28:19.708Z,31.65
2022-08-14T08:31:00.025Z,30.45
2022-08-14T08:33:37.332Z,31.88
2022-08-14T08:36:07.899Z,32.60
2022-08-14T08:39:18.308Z,32.25
2022-08-14T08:41:21.933Z,31.80
2022-08-14T08:43:50.215Z,31.17
2022-08-14T08:46:23.833Z,31.75
2022-08-14T08:51:33.451Z,31.77
2022-08-14T08:54:18.343Z,32.42
2022-08-14T08:56:49.785Z,32.78
2022-08-14T08:59:20.258Z,32.22
2022-08-14T09:02:10.285Z,30.92
2022-08-14T09:04:45.797Z,31.83
2022-08-14T09:07:26.849Z,32.50
2022-08-14T09:09:58.987Z,33.33
2022-08-14T09:12:27.023Z,31.92
2022-08-14T09:14:57.144Z,32.22
2022-08-14T09:17:26.042Z,31.27
2022-08-14T09:19:53.844Z,30.80
2022-08-14T09:22:35.682Z,30.98
2022-08-14T09:25:07.374Z,30.55
2022-08-14T09:27:35.288Z,31.75
2022-08-14T09:30:13.139Z,31.55
2022-08-14T09:33:11.005Z,32.10
2022-08-14T09:35:56.726Z,32.28
2022-08-14T09:38:46.012Z,33.53
2022-08-14T09:41:19.626Z,32.40
2022-08-14T09:44:06.432Z,32.47
2022-08-14T09:46:35.290Z,31.60
2022-08-14T09:49:07.489Z,31.15
2022-08-14T09:51:51.789Z,32.08
2022-08-14T09:54:37.906Z,31.73
2022-08-14T09:57:06.614Z,31.92
2022-08-14T09:59:47.571Z,32.97
2022-08-14T10:02:31.942Z,31.63
2022-08-14T10:05:09.978Z,32.42
2022-08-14T10:07:53.897Z,30.73
2022-08-14T10:10:34.626Z,30.98
2022-08-14T10:13:03.386Z,31.38
2022-08-14T10:15:33.510Z,31.75
2022-08-14T10:18:17.253Z,30.77
2022-08-14T10:21:00.701Z,32.10
2022-08-14T10:23:40.099Z,30.17
2022-08-14T10:26:08.043Z,30.77
2022-08-14T10:29:18.273Z,30.75
2022-08-14T10:31:44.730Z,29.63
2022-08-14T10:34:18.278Z,31.38
2022-08-14T10:36:50.206Z,30.92
2022-08-14T10:39:29.735Z,31.58
2022-08-14T10:42:16.734Z,31.67
2022-08-14T10:44:49.179Z,30.88
2022-08-14T10:47:40.777Z,31.33
2022-08-14T10:50:07.626Z,31.00
2022-08-14T10:52:39.065Z,30.70
2022-08-14T10:55:13.766Z,31.50
2022-08-14T10:57:54.631Z,30.17
2022-08-14T11:00:30.166Z,30.42
2022-08-14T11:03:09.262Z,31.45
2022-08-14T11:05:46.246Z,29.83
2022-08-14T11:08:15.349Z,30.75
2022-08-14T11:10:43.560Z,31.02
2022-08-14T11:13:16.076Z,31.10
2022-08-14T11:15:43.912Z,31.20
2022-08-14T11:18:20.393Z,31.33
2022-08-14T11:20:59.533Z,30.92
2022-08-14T11:23:37.929Z,32.25
2022-08-14T11:26:08.288Z,30.90
2022-08-14T11:28:47.302Z,31.90
2022-08-14T11:31:18.469Z,31.20
2022-08-14T11:33:49.457Z,31.90
2022-08-14T11:36:18.197Z,29.75
2022-08-14T11:38:46.548Z,30.67
2022-08-14T11:41:17.063Z,32.05
2022-08-14T11:43:57.926Z,32.60
2022-08-14T11:46:29.707Z,31.95
2022-08-14T11:49:02.018Z,32.47
2022-08-14T11:51:50.930Z,32.22
2022-08-14T11:54:19.596Z,30.75
2022-08-14T11:56:51.174Z,32.10
2022-08-14T11:59:26.538Z,30.52
2022-08-14T12:03:00.600Z,31.50
2022-08-14T12:05:03.865Z,31.90
2022-08-14T12:07:32.036Z,30.00
2022-08-14T12:09:59.771Z,31.33
2022-08-14T12:12:36.121Z,32.75
2022-08-14T12:15:14.146Z,30.58
2022-08-14T12:17:49.269Z,33.22
2022-08-14T12:20:29.978Z,32.92
2022-08-14T12:23:05.350Z,31.83
2022-08-14T12:25:34.569Z,31.70
2022-08-14T12:28:10.034Z,32.55
2022-08-14T12:30:56.707Z,31.23
2022-08-14T12:33:33.173Z,31.92
2022-08-14T12:36:05.909Z,32.55
2022-08-14T12:38:44.218Z,32.20
2022-08-14T12:41:21.724Z,31.50
2022-08-14T12:44:01.694Z,30.63
2022-08-14T12:46:40.511Z,31.55
2022-08-14T12:49:16.944Z,31.58
2022-08-14T12:51:56.652Z,32.67
2022-08-14T12:54:28.258Z,30.98
2022-08-14T12:57:14.672Z,31.65
2022-08-14T12:59:46.035Z,33.03
2022-08-14T13:02:26.189Z,31.55
2022-08-14T13:04:57.851Z,31.05
2022-08-14T13:07:32.480Z,31.02
2022-08-14T13:10:45.936Z,32.38
2022-08-14T13:13:11.977Z,33.40
2022-08-14T13:15:38.136Z,33.50
2022-08-14T13:18:10.471Z,32.60
2022-08-14T13:20:37.619Z,31.08
2022-08-14T13:23:04.784Z,29.92
2022-08-14T13:25:35.240Z,29.58
2022-08-14T13:28:04.200Z,32.20
2022-08-14T13:30:40.391Z,32.47
2022-08-14T13:33:07.568Z,32.13
2022-08-14T13:38:13.433Z,33.00
2022-08-14T13:40:41.047Z,32.25
2022-08-14T13:43:09.256Z,31.42
2022-08-14T13:46:00.612Z,31.65
2022-08-14T13:48:32.633Z,32.03
2022-08-14T13:51:10.601Z,30.55
2022-08-14T13:53:49.508Z,32.33
2022-08-14T13:56:36.528Z,31.58
2022-08-14T13:59:04.397Z,30.70
2022-08-14T14:01:43.078Z,32.13
2022-08-14T14:04:18.821Z,33.03
2022-08-14T14:06:48.679Z,33.17
2022-08-14T14:09:21.242Z,32.33
2022-08-14T14:11:48.053Z,30.63
2022-08-14T14:14:44.580Z,30.30
2022-08-14T14:17:12.371Z,31.27
2022-08-14T14:19:41.318Z,31.45
2022-08-14T14:22:09.671Z,31.63
2022-08-14T14:24:39.982Z,31.48
2022-08-14T14:27:39.531Z,31.73
2022-08-14T14:30:01.325Z,30.58
2022-08-14T14:32:32.199Z,29.88
2022-08-14T14:35:02.659Z,31.42
2022-08-14T14:37:30.530Z,31.58
2022-08-14T14:40:53.880Z,31.55
2022-08-14T14:42:53.314Z,33.65
2022-08-14T14:45:23.752Z,33.78
2022-08-14T14:47:58.935Z,33.65
2022-08-14T14:50:26.427Z,32.33
2022-08-14T14:52:53.939Z,31.48
2022-08-14T14:55:43.110Z,32.53
2022-08-14T14:58:31.052Z,31.75
2022-08-14T15:00:59.864Z,32.50
2022-08-14T15:03:26.730Z,32.92
2022-08-14T15:05:54.415Z,32.63
2022-08-14T15:08:26.407Z,33.17
2022-08-14T15:11:13.470Z,32.75
2022-08-14T15:13:43.091Z,31.05
2022-08-14T15:16:10.623Z,31.65
2022-08-14T15:18:41.885Z,33.55
2022-08-14T15:21:14.547Z,31.55
2022-08-14T15:23:44.327Z,32.30
2022-08-14T15:26:23.981Z,32.90
2022-08-14T15:29:03.197Z,31.92
2022-08-14T15:31:34.664Z,32.20
2022-08-14T15:34:45.497Z,32.80
2022-08-14T15:36:58.498Z,31.85
2022-08-14T15:39:25.928Z,31.88
2022-08-14T15:41:57.982Z,32.72
2022-08-14T15:44:28.001Z,33.47
2022-08-14T15:46:59.840Z,31.95
2022-08-14T15:49:35.010Z,32.22
2022-08-14T15:52:03.294Z,31.13
2022-08-14T15:54:31.520Z,31.67
2022-08-14T15:57:06.008Z,31.73
2022-08-14T15:59:55.813Z,31.85
2022-08-14T16:02:24.451Z,30.85
2022-08-14T16:04:54.742Z,31.13
2022-08-14T16:07:27.036Z,31.42
2022-08-14T16:10:18.303Z,32.17
2022-08-14T16:12:47.634Z,32.05
2022-08-14T16:15:16.947Z,31.20
2022-08-14T16:17:44.812Z,32.13
2022-08-14T16:20:12.062Z,31.30
2022-08-14T16:22:58.610Z,30.05
2022-08-14T16:25:34.410Z,31.90
2022-08-14T16:28:03.408Z,32.92
2022-08-14T16:30:34.181Z,31.48
2022-08-14T16:33:05.303Z,32.72
2022-08-14T16:35:43.304Z,32.53
2022-08-14T16:38:45.395Z,31.13
2022-08-14T16:41:17.977Z,31.38
2022-08-14T16:43:45.818Z,31.38
2022-08-14T16:46:15.347Z,31.38
2022-08-14T16:48:55.166Z,31.35
2022-08-14T16:51:25.963Z,32.50
2022-08-14T16:53:55.433Z,31.88
2022-08-14T16:56:25.665Z,32.35
2022-08-14T16:59:14.227Z,32.67
2022-08-14T17:02:01.437Z,32.00
2022-08-14T17:04:34.461Z,32.15
2022-08-14T17:07:13.465Z,34.53
2022-08-14T17:09:48.724Z,33.08
2022-08-14T17:12:28.976Z,32.03
2022-08-14T17:15:11.191Z,31.52
2022-08-14T17:17:57.849Z,32.58
2022-08-14T17:20:53.227Z,31.83
2022-08-14T17:23:20.297Z,30.20
2022-08-14T17:25:49.501Z,30.70
2022-08-14T17:28:51.863Z,31.20
2022-08-14T17:31:12.186Z,33.15
2022-08-14T17:33:44.717Z,34.67
2022-08-14T17:36:22.853Z,35.20
2022-08-14T17:39:13.365Z,34.33
2022-08-14T17:42:02.726Z,35.65
2022-08-14T17:44:45.230Z,33.33
2022-08-14T17:47:14.760Z,30.90
2022-08-14T17:49:51.951Z,29.90
2022-08-14T17:55:12.715Z,29.08
2022-08-14T17:57:58.722Z,29.95
2022-08-14T18:00:26.229Z,30.23
2022-08-14T18:02:54.799Z,29.63
2022-08-14T18:06:07.487Z,29.77
2022-08-14T18:08:33.069Z,29.73
2022-08-14T18:11:00.024Z,30.48
2022-08-14T18:13:49.782Z,31.55
2022-08-14T18:16:20.114Z,31.33
2022-08-14T18:18:51.150Z,30.15
2022-08-14T18:21:40.266Z,29.30
2022-08-14T18:24:20.029Z,29.42
2022-08-14T18:27:01.895Z,29.88
2022-08-14T18:29:32.089Z,31.00
2022-08-14T18:31:59.968Z,30.25
2022-08-14T18:34:36.777Z,31.70
2022-08-14T18:37:16.812Z,26.05
2022-08-14T18:40:03.437Z,26.30
2022-08-14T18:42:34.620Z,26.27
2022-08-14T18:45:02.167Z,26.15
2022-08-14T18:48:05.176Z,25.52
2022-08-14T18:50:31.808Z,26.17
2022-08-14T18:53:10.993Z,25.63
2022-08-14T18:55:53.301Z,27.52
2022-08-14T18:58:28.185Z,26.67
2022-08-14T19:01:01.775Z,29.25
2022-08-14T19:03:34.271Z,28.60
2022-08-14T19:08:49.711Z,27.92
2022-08-14T19:11:32.262Z,26.23
2022-08-14T19:14:00.303Z,27.42
2022-08-14T19:16:37.192Z,27.77
2022-08-14T19:19:08.769Z,28.00
2022-08-14T19:21:43.490Z,27.73
2022-08-14T19:24:27.888Z,27.15
2022-08-14T19:27:23.820Z,28.38
2022-08-14T19:30:19.391Z,27.17
2022-08-14T19:32:50.779Z,26.63
2022-08-14T19:35:24.740Z,27.42
2022-08-14T19:38:32.408Z,26.95
2022-08-14T19:41:01.613Z,27.95
2022-08-14T19:43:55.546Z,27.13
2022-08-14T19:46:37.511Z,27.50
2022-08-14T19:49:06.671Z,27.13
2022-08-14T19:51:41.638Z,26.70
2022-08-14T19:54:13.567Z,25.88
2022-08-14T19:56:46.000Z,27.02
2022-08-14T19:59:18.314Z,25.85
2022-08-14T20:01:49.524Z,27.15
2022-08-14T20:04:46.352Z,27.75
2022-08-14T20:07:59.945Z,27.15
2022-08-14T20:11:08.262Z,28.83
2022-08-14T20:13:32.762Z,28.00
2022-08-14T20:16:12.014Z,29.00
2022-08-14T20:18:50.088Z,29.02
2022-08-14T20:21:18.354Z,28.23
2022-08-14T20:23:47.851Z,28.58
2022-08-14T20:26:30.851Z,28.95
2022-08-14T20:29:04.948Z,28.00
2022-08-14T20:31:37.918Z,27.85
2022-08-14T20:34:18.606Z,28.08
2022-08-14T20:39:34.578Z,28.95
2022-08-14T20:42:30.676Z,27.65
2022-08-14T20:45:23.899Z,29.65
2022-08-14T20:48:02.032Z,27.95
2022-08-14T20:50:36.751Z,26.80
2022-08-14T20:53:36.053Z,28.80
2022-08-14T20:56:28.883Z,29.13
2022-08-14T20:58:57.390Z,27.52
2022-08-14T21:01:24.121Z,27.10
2022-08-14T21:04:01.256Z,27.45
2022-08-14T21:06:30.709Z,29.27
2022-08-14T21:10:04.597Z,28.02
2022-08-14T21:12:33.958Z,28.42
2022-08-14T21:15:00.607Z,27.55
2022-08-14T21:17:27.795Z,28.15
2022-08-14T21:19:54.533Z,28.92
2022-08-14T21:22:21.615Z,29.35
2022-08-14T21:24:48.421Z,29.15
2022-08-14T21:27:20.064Z,28.27
2022-08-14T21:29:55.043Z,29.52
2022-08-14T21:32:47.013Z,29.45
2022-08-14T21:35:21.257Z,28.90
2022-08-14T21:37:50.515Z,29.63
2022-08-14T21:40:42.045Z,28.63
2022-08-14T21:43:14.880Z,28.42
2022-08-14T21:45:45.342Z,28.75
2022-08-14T21:48:21.326Z,28.88
2022-08-14T21:51:01.286Z,28.80
2022-08-14T21:53:57.990Z,27.75
2022-08-14T21:56:38.926Z,27.77
2022-08-14T21:59:22.395Z,28.50
2022-08-14T22:02:00.122Z,29.10
2022-08-14T22:04:33.173Z,28.63
2022-08-14T22:07:07.348Z,27.88
2022-08-14T22:09:36.308Z,28.15
2022-08-14T22:12:06.730Z,26.63
2022-08-14T22:14:43.599Z,28.20
2022-08-14T22:17:16.248Z,27.35
2022-08-14T22:19:54.720Z,27.70
2022-08-14T22:22:26.537Z,27.30
2022-08-14T22:24:59.965Z,28.75
2022-08-14T22:27:29.609Z,28.88
2022-08-14T22:30:00.012Z,28.27
2022-08-14T22:32:56.810Z,27.58
2022-08-14T22:35:15.616Z,27.33
2022-08-14T22:37:44.524Z,26.90
2022-08-14T22:40:46.584Z,26.90
2022-08-14T22:43:08.007Z,26.95
2022-08-14T22:45:37.859Z,27.17
2022-08-14T22:48:10.803Z,27.35
2022-08-14T22:50:49.185Z,26.13
2022-08-14T22:53:21.987Z,25.35
2022-08-14T22:55:52.073Z,25.58
2022-08-14T22:58:31.475Z,26.55
2022-08-14T23:01:06.493Z,26.00
2022-08-14T23:03:40.181Z,26.27
2022-08-14T23:07:03.418Z,26.85
2022-08-14T23:09:35.883Z,26.38
2022-08-14T23:11:49.201Z,26.67
2022-08-14T23:14:23.879Z,25.98
2022-08-14T23:16:57.276Z,25.10
2022-08-14T23:19:33.646Z,26.30
2022-08-14T23:22:04.929Z,24.90
2022-08-14T23:24:31.790Z,24.98
2022-08-14T23:26:58.985Z,24.33
2022-08-14T23:29:26.952Z,24.20
2022-08-14T23:31:59.209Z,24.52
2022-08-14T23:34:29.525Z,24.55
2022-08-14T23:36:57.611Z,24.98
2022-08-14T23:39:30.183Z,25.38
2022-08-14T23:42:04.016Z,24.10
2022-08-14T23:44:35.336Z,23.73
2022-08-14T23:47:10.637Z,23.55
2022-08-14T23:49:56.806Z,24.80
2022-08-14T23:52:51.094Z,23.58
2022-08-14T23:55:15.155Z,23.75
2022-08-14T23:57:57.182Z,24.20
